Sheridan Park, Washington
Current Conditions -  °F | °C
As of 10:35 AM on Saturday 20 Dec 2014 (Local Time) from KPWT Reporting Station
Overcast Overcast  
Wind Chill: 45°   Ceiling: 800
Heat Index: 45°   Visibility: 1.7mi
Dew Point: 43°   Wind: 0mph
Humidity: 93%   Direction: NA
Pressure: 29.63"   Gusts: NA
Location:  47.6314°N, 122.638°W
Report Text: KPWT 201835Z AUTO 00000KT 1 3/4SM OVC008 07/06 A2963 RMK AO1 P0005
Loading
Personal Weather Stations






























Interactive Weather Map New forecast layout! Learn more

10-Day Weather Forecast

Advertisements
Track Severe Weather on mobile